sensor_id;sensor_type;location;lat;lon;timestamp;temperature;humidity
5828;DHT22;42583;50.240;8.444;2022-11-20T00:11:10;1.80;99.90
5828;DHT22;42583;50.240;8.444;2022-11-20T00:26:13;1.80;99.90
5828;DHT22;42583;50.240;8.444;2022-11-20T00:41:15;2.00;99.90
5828;DHT22;42583;50.240;8.444;2022-11-20T00:56:17;2.00;99.90
5828;DHT22;42583;50.240;8.444;2022-11-20T01:11:21;2.00;99.90
5828;DHT22;42583;50.240;8.444;2022-11-20T01:26:24;2.10;99.90
5828;DHT22;42583;50.240;8.444;2022-11-20T01:41:26;2.10;99.90
5828;DHT22;42583;50.240;8.444;2022-11-20T01:56:47;2.20;99.90
5828;DHT22;42583;50.240;8.444;2022-11-20T02:11:49;2.30;99.90
5828;DHT22;42583;50.240;8.444;2022-11-20T02:27:06;2.40;99.90
5828;DHT22;42583;50.240;8.444;2022-11-20T02:42:08;2.40;99.90
5828;DHT22;42583;50.240;8.444;2022-11-20T02:57:08;2.40;99.90
5828;DHT22;42583;50.240;8.444;2022-11-20T03:12:09;2.30;99.90
5828;DHT22;42583;50.240;8.444;2022-11-20T03:27:09;2.30;99.90
5828;DHT22;42583;50.240;8.444;2022-11-20T03:42:10;2.30;99.90
5828;DHT22;42583;50.240;8.444;2022-11-20T03:57:29;2.30;99.90
5828;DHT22;42583;50.240;8.444;2022-11-20T04:12:32;2.20;99.90
5828;DHT22;42583;50.240;8.444;2022-11-20T04:27:33;2.30;99.90
5828;DHT22;42583;50.240;8.444;2022-11-20T04:42:33;2.20;99.90
5828;DHT22;42583;50.240;8.444;2022-11-20T04:57:34;2.20;99.90
5828;DHT22;42583;50.240;8.444;2022-11-20T05:12:34;2.20;99.90
5828;DHT22;42583;50.240;8.444;2022-11-20T05:27:35;2.20;99.90
5828;DHT22;42583;50.240;8.444;2022-11-20T05:42:36;2.20;99.90
5828;DHT22;42583;50.240;8.444;2022-11-20T05:57:36;2.10;99.90
5828;DHT22;42583;50.240;8.444;2022-11-20T06:12:37;2.10;99.90
5828;DHT22;42583;50.240;8.444;2022-11-20T06:27:37;2.10;99.90
5828;DHT22;42583;50.240;8.444;2022-11-20T06:42:38;2.20;99.90
5828;DHT22;42583;50.240;8.444;2022-11-20T06:57:38;2.20;99.90
5828;DHT22;42583;50.240;8.444;2022-11-20T07:12:39;2.30;99.90
5828;DHT22;42583;50.240;8.444;2022-11-20T07:27:39;2.50;99.90
5828;DHT22;42583;50.240;8.444;2022-11-20T07:42:56;2.50;99.90
5828;DHT22;42583;50.240;8.444;2022-11-20T07:57:57;2.60;99.90
5828;DHT22;42583;50.240;8.444;2022-11-20T08:12:58;2.60;99.90
5828;DHT22;42583;50.240;8.444;2022-11-20T08:28:18;2.60;99.90
5828;DHT22;42583;50.240;8.444;2022-11-20T08:43:19;2.60;99.90
5828;DHT22;42583;50.240;8.444;2022-11-20T08:58:19;2.60;99.90
5828;DHT22;42583;50.240;8.444;2022-11-20T09:13:21;2.50;99.90
5828;DHT22;42583;50.240;8.444;2022-11-20T09:28:21;2.50;99.90
5828;DHT22;42583;50.240;8.444;2022-11-20T09:43:50;2.60;99.90
5828;DHT22;42583;50.240;8.444;2022-11-20T09:58:55;2.60;99.90
5828;DHT22;42583;50.240;8.444;2022-11-20T10:14:05;2.70;99.90
5828;DHT22;42583;50.240;8.444;2022-11-20T10:29:19;2.70;99.90
5828;DHT22;42583;50.240;8.444;2022-11-20T10:44:26;2.70;99.90
5828;DHT22;42583;50.240;8.444;2022-11-20T11:00:01;2.80;99.90
5828;DHT22;42583;50.240;8.444;2022-11-20T11:15:03;2.90;99.90
5828;DHT22;42583;50.240;8.444;2022-11-20T11:30:15;2.80;99.90
5828;DHT22;42583;50.240;8.444;2022-11-20T11:45:16;2.80;99.90
5828;DHT22;42583;50.240;8.444;2022-11-20T12:00:21;2.90;99.90
5828;DHT22;42583;50.240;8.444;2022-11-20T12:15:26;3.10;99.90
5828;DHT22;42583;50.240;8.444;2022-11-20T12:30:32;3.40;99.90
5828;DHT22;42583;50.240;8.444;2022-11-20T13:32:00;3.60;99.90
5828;DHT22;42583;50.240;8.444;2022-11-20T13:47:02;3.80;99.90
5828;DHT22;42583;50.240;8.444;2022-11-20T14:02:02;4.00;99.90
5828;DHT22;42583;50.240;8.444;2022-11-20T14:17:17;4.20;99.90
5828;DHT22;42583;50.240;8.444;2022-11-20T14:32:20;4.30;99.90
5828;DHT22;42583;50.240;8.444;2022-11-20T14:47:25;4.20;99.90
5828;DHT22;42583;50.240;8.444;2022-11-20T15:02:26;4.20;99.90
5828;DHT22;42583;50.240;8.444;2022-11-20T15:17:30;4.30;99.90
5828;DHT22;42583;50.240;8.444;2022-11-20T15:32:31;4.30;99.90
5828;DHT22;42583;50.240;8.444;2022-11-20T15:47:33;4.30;99.90
5828;DHT22;42583;50.240;8.444;2022-11-20T16:02:35;4.30;99.90
5828;DHT22;42583;50.240;8.444;2022-11-20T16:17:35;4.30;99.90
5828;DHT22;42583;50.240;8.444;2022-11-20T16:32:45;4.20;99.90
5828;DHT22;42583;50.240;8.444;2022-11-20T16:47:46;4.10;99.90
5828;DHT22;42583;50.240;8.444;2022-11-20T17:02:46;4.10;99.90
5828;DHT22;42583;50.240;8.444;2022-11-20T17:17:47;3.90;99.90
5828;DHT22;42583;50.240;8.444;2022-11-20T17:32:47;3.80;99.90
5828;DHT22;42583;50.240;8.444;2022-11-20T17:47:48;3.90;99.90
5828;DHT22;42583;50.240;8.444;2022-11-20T18:02:48;3.90;99.90
5828;DHT22;42583;50.240;8.444;2022-11-20T18:17:49;3.90;99.90
5828;DHT22;42583;50.240;8.444;2022-11-20T18:32:49;3.90;99.90
5828;DHT22;42583;50.240;8.444;2022-11-20T18:47:50;3.90;99.90
5828;DHT22;42583;50.240;8.444;2022-11-20T19:02:54;3.80;99.90
5828;DHT22;42583;50.240;8.444;2022-11-20T19:17:54;3.80;99.90
5828;DHT22;42583;50.240;8.444;2022-11-20T19:32:56;3.70;99.90
5828;DHT22;42583;50.240;8.444;2022-11-20T19:47:57;3.50;99.90
5828;DHT22;42583;50.240;8.444;2022-11-20T20:02:57;3.50;99.90
5828;DHT22;42583;50.240;8.444;2022-11-20T20:17:58;3.60;99.90
5828;DHT22;42583;50.240;8.444;2022-11-20T20:32:58;3.70;99.90
5828;DHT22;42583;50.240;8.444;2022-11-20T20:47:59;3.80;99.90
5828;DHT22;42583;50.240;8.444;2022-11-20T21:03:00;3.80;99.90
5828;DHT22;42583;50.240;8.444;2022-11-20T21:18:00;3.90;99.90
5828;DHT22;42583;50.240;8.444;2022-11-20T21:33:01;3.90;99.90
5828;DHT22;42583;50.240;8.444;2022-11-20T21:48:01;4.00;99.90
5828;DHT22;42583;50.240;8.444;2022-11-20T22:03:03;4.00;99.90
5828;DHT22;42583;50.240;8.444;2022-11-20T22:18:03;4.10;99.90
5828;DHT22;42583;50.240;8.444;2022-11-20T22:33:13;4.10;99.90
5828;DHT22;42583;50.240;8.444;2022-11-20T22:48:14;4.20;99.90
5828;DHT22;42583;50.240;8.444;2022-11-20T23:03:14;4.20;99.90
5828;DHT22;42583;50.240;8.444;2022-11-20T23:18:15;4.20;99.90
5828;DHT22;42583;50.240;8.444;2022-11-20T23:33:15;4.20;99.90
5828;DHT22;42583;50.240;8.444;2022-11-20T23:48:16;4.10;99.90
